createdAt,value
2022-12-19T00:01:06.146Z,6.4
2022-12-19T00:02:03.720Z,5.9
2022-12-19T00:03:04.303Z,6.4
2022-12-19T00:04:08.372Z,5.4
2022-12-19T00:05:07.401Z,5.8
2022-12-19T00:06:07.512Z,7
2022-12-19T00:07:07.412Z,5.2
2022-12-19T00:08:17.574Z,6.4
2022-12-19T00:09:11.091Z,5.6
2022-12-19T00:10:11.010Z,7
2022-12-19T00:11:12.752Z,6
2022-12-19T00:12:17.411Z,5.8
2022-12-19T00:13:16.461Z,5
2022-12-19T00:14:17.184Z,6.7
2022-12-19T00:15:17.495Z,7.2
2022-12-19T00:16:21.051Z,4.8
2022-12-19T00:17:18.836Z,6.1
2022-12-19T00:18:19.263Z,6
2022-12-19T00:19:19.363Z,7
2022-12-19T00:20:19.801Z,4.6
2022-12-19T00:21:22.854Z,6.3
2022-12-19T00:22:20.420Z,6.5
2022-12-19T00:23:20.831Z,5.5
2022-12-19T00:24:21.889Z,5.9
2022-12-19T00:25:21.660Z,7.1
2022-12-19T00:26:32.774Z,7.2
2022-12-19T00:27:25.071Z,8.9
2022-12-19T00:28:25.462Z,6
2022-12-19T00:29:25.893Z,6.3
2022-12-19T00:30:26.091Z,6.5
2022-12-19T00:31:28.938Z,8.4
2022-12-19T00:32:26.832Z,7
2022-12-19T00:33:27.241Z,6.2
2022-12-19T00:34:27.661Z,5.3
2022-12-19T00:35:27.971Z,6.2
2022-12-19T00:36:32.382Z,6.7
2022-12-19T00:37:29.831Z,7.2
2022-12-19T00:38:30.973Z,6.9
2022-12-19T00:39:30.663Z,6.9
2022-12-19T00:40:31.069Z,6.9
2022-12-19T00:41:33.541Z,6.1
2022-12-19T00:42:31.804Z,5.7
2022-12-19T00:43:32.248Z,6.5
2022-12-19T00:44:32.737Z,6.4
2022-12-19T00:45:32.998Z,5.9
2022-12-19T00:46:34.670Z,7.2
2022-12-19T00:47:33.678Z,6.2
2022-12-19T00:48:34.722Z,5.5
2022-12-19T00:49:34.317Z,5.2
2022-12-19T00:50:34.932Z,6
2022-12-19T00:51:36.747Z,7.6
2022-12-19T00:52:35.366Z,6.2
2022-12-19T00:53:35.673Z,8
2022-12-19T00:54:36.056Z,6.5
2022-12-19T00:55:38.867Z,6.3
2022-12-19T00:56:38.324Z,6.8
2022-12-19T00:57:37.145Z,6.2
2022-12-19T00:58:39.921Z,5.9
2022-12-19T00:59:40.168Z,6.2
2022-12-19T01:00:39.944Z,6.5
2022-12-19T01:01:41.980Z,5.9
2022-12-19T01:02:40.915Z,5.6
2022-12-19T01:03:52.924Z,4.8
2022-12-19T01:04:44.044Z,7.6
2022-12-19T01:05:44.345Z,6.2
2022-12-19T01:06:44.772Z,5.5
2022-12-19T01:07:45.182Z,7
2022-12-19T01:08:45.797Z,6
2022-12-19T01:09:45.713Z,6.6
2022-12-19T01:10:46.940Z,7
2022-12-19T01:11:46.442Z,6.3
2022-12-19T01:12:46.863Z,5.9
2022-12-19T01:13:47.274Z,6.4
2022-12-19T01:14:47.678Z,6.3
2022-12-19T01:15:47.902Z,6.7
2022-12-19T01:16:48.285Z,5.9
2022-12-19T01:17:49.446Z,5.5
2022-12-19T01:18:48.862Z,8
2022-12-19T01:19:49.145Z,5.6
2022-12-19T01:20:49.587Z,5.5
2022-12-19T01:21:49.790Z,5.1
2022-12-19T01:22:50.192Z,6
2022-12-19T01:23:50.607Z,7.2
2022-12-19T01:24:50.931Z,6.4
2022-12-19T01:25:54.420Z,6.9
2022-12-19T01:26:51.861Z,5.9
2022-12-19T01:27:54.945Z,6.2
2022-12-19T01:28:52.585Z,5.6
2022-12-19T01:29:53.215Z,7
2022-12-19T01:30:52.913Z,6.9
2022-12-19T01:31:53.499Z,6.6
2022-12-19T01:32:53.641Z,6.7
2022-12-19T01:33:54.544Z,5.8
2022-12-19T01:34:54.373Z,4.7
2022-12-19T01:35:54.683Z,5.3
2022-12-19T01:36:55.092Z,6.2
2022-12-19T01:37:58.065Z,19
2022-12-19T01:38:57.360Z,8.1
2022-12-19T01:39:56.043Z,6.4
2022-12-19T01:40:57.680Z,5.9
2022-12-19T01:41:58.098Z,5.5
2022-12-19T01:42:57.171Z,6
2022-12-19T01:44:05.766Z,6.4
2022-12-19T01:46:02.715Z,4.8
2022-12-19T01:47:01.264Z,6.9
2022-12-19T01:52:19.500Z,4.1
2022-12-19T01:53:16.914Z,6.8
2022-12-19T01:54:25.525Z,6.3
2022-12-19T01:55:18.871Z,6.2
2022-12-19T01:56:22.848Z,7
2022-12-19T01:57:20.503Z,6.4
2022-12-19T01:58:20.710Z,6.1
2022-12-19T01:59:27.777Z,6.8
2022-12-19T02:00:25.094Z,7.1
2022-12-19T02:01:25.827Z,5.2
2022-12-19T02:02:31.624Z,5.7
2022-12-19T02:03:32.311Z,6.4
2022-12-19T02:04:32.377Z,7.1
2022-12-19T02:05:31.596Z,5.7
2022-12-19T02:06:32.852Z,7
2022-12-19T02:07:32.953Z,5.9
2022-12-19T02:08:31.844Z,5.2
2022-12-19T02:09:32.049Z,5.5
2022-12-19T02:10:31.756Z,5.7
2022-12-19T02:11:32.056Z,4.9
2022-12-19T02:12:36.771Z,6
2022-12-19T02:13:34.731Z,5.5
2022-12-19T02:14:35.552Z,6.5
2022-12-19T02:30:14.286Z,4.4
2022-12-19T02:43:45.077Z,5.1
2022-12-19T02:45:49.573Z,5
2022-12-19T02:46:49.407Z,5.8
2022-12-19T02:47:48.891Z,3.9
2022-12-19T02:48:49.524Z,5.1
2022-12-19T02:49:49.428Z,5.2
2022-12-19T02:50:50.185Z,5.2
2022-12-19T02:51:50.070Z,4.6
2022-12-19T02:52:50.047Z,4.9
2022-12-19T02:53:50.889Z,5.3
2022-12-19T02:54:53.413Z,4.5
2022-12-19T03:11:35.997Z,5.1
2022-12-19T03:12:40.676Z,5
2022-12-19T03:13:42.733Z,4.6
2022-12-19T03:14:41.313Z,4.4
2022-12-19T03:15:41.718Z,5.9
2022-12-19T03:16:41.975Z,5.4
2022-12-19T03:17:41.831Z,4.2
2022-12-19T03:18:42.866Z,4.1
2022-12-19T03:19:42.286Z,4.5
2022-12-19T03:21:49.956Z,5.6
2022-12-19T03:22:48.128Z,4.8
2022-12-19T03:23:50.524Z,4.9
2022-12-19T03:24:48.546Z,5.7
2022-12-19T03:25:56.198Z,4.9
2022-12-19T03:31:05.160Z,3.8
2022-12-19T03:32:05.589Z,4.1
2022-12-19T03:33:03.855Z,5.1
2022-12-19T03:36:14.010Z,4.5
2022-12-19T03:37:17.020Z,4.4
2022-12-19T03:38:18.319Z,4.1
2022-12-19T03:39:17.716Z,4.3
2022-12-19T03:40:20.084Z,4.5
2022-12-19T03:41:21.474Z,3.8
2022-12-19T03:42:20.668Z,4.8
2022-12-19T03:43:23.186Z,5.1
2022-12-19T03:44:22.764Z,4.3
2022-12-19T03:46:27.826Z,4.4
2022-12-19T03:47:31.565Z,3.4
2022-12-19T03:49:32.834Z,5
2022-12-19T03:58:56.663Z,4
2022-12-19T03:59:55.106Z,3.7
2022-12-19T04:00:54.316Z,4
2022-12-19T04:01:54.499Z,4.1
2022-12-19T04:02:56.302Z,3.4
2022-12-19T04:03:55.593Z,3.8
2022-12-19T04:04:59.369Z,3.8
2022-12-19T04:05:59.465Z,2.9
2022-12-19T04:06:58.831Z,3.4
2022-12-19T04:08:02.864Z,4.7
2022-12-19T04:09:01.331Z,4.1
2022-12-19T04:10:05.637Z,3
2022-12-19T04:11:09.816Z,3.7
2022-12-19T04:12:13.756Z,3.6
2022-12-19T04:13:17.127Z,3
2022-12-19T04:15:20.328Z,3.8
2022-12-19T04:18:22.664Z,3
2022-12-19T04:20:26.290Z,3.3
2022-12-19T04:21:32.964Z,3.7
2022-12-19T04:23:36.348Z,3.2
2022-12-19T04:24:36.366Z,3.8
2022-12-19T04:26:39.246Z,4
2022-12-19T04:27:41.699Z,3.3
2022-12-19T04:28:43.920Z,3.9
2022-12-19T04:29:42.427Z,3.5
2022-12-19T04:30:43.089Z,4.4
2022-12-19T04:31:42.905Z,3.1
2022-12-19T04:32:46.025Z,3.8
2022-12-19T04:33:43.593Z,4.8
2022-12-19T04:34:43.603Z,4
2022-12-19T04:35:44.216Z,4.1
2022-12-19T04:36:44.417Z,3.2
2022-12-19T04:37:44.742Z,4.2
2022-12-19T04:38:45.053Z,4
2022-12-19T04:39:45.355Z,4.1
2022-12-19T04:40:45.538Z,4.9
2022-12-19T04:41:45.980Z,4.8
2022-12-19T04:42:46.293Z,3.7
2022-12-19T04:43:46.715Z,3.9
2022-12-19T04:44:46.921Z,4.1
2022-12-19T04:45:47.373Z,3.7
2022-12-19T04:46:47.780Z,4.3
2022-12-19T04:47:47.880Z,4.2
2022-12-19T04:48:48.195Z,3.3
2022-12-19T04:49:48.496Z,4.3
2022-12-19T04:50:48.925Z,4.3
2022-12-19T04:51:49.337Z,3.6
2022-12-19T04:52:53.235Z,4.6
2022-12-19T04:53:53.027Z,4
2022-12-19T04:54:53.456Z,4.8
2022-12-19T04:56:54.696Z,6
2022-12-19T04:57:54.999Z,3.4
2022-12-19T04:58:58.803Z,4.3
2022-12-19T04:59:56.147Z,5.7
2022-12-19T05:01:01.465Z,3.9
2022-12-19T05:01:58.906Z,5.2
2022-12-19T05:02:59.795Z,4.3
2022-12-19T05:04:04.220Z,5.1
2022-12-19T05:05:02.126Z,4
2022-12-19T05:06:13.797Z,4.5
2022-12-19T05:07:06.436Z,3.8
2022-12-19T05:08:06.548Z,4.1
2022-12-19T05:09:06.841Z,4
2022-12-19T05:10:08.296Z,4
2022-12-19T05:11:13.386Z,4.7
2022-12-19T05:12:09.932Z,4.6
2022-12-19T05:13:10.255Z,3.5
2022-12-19T05:14:10.579Z,4.1
2022-12-19T05:15:11.285Z,4.2
2022-12-19T05:16:12.565Z,4.7
2022-12-19T05:17:11.716Z,4.5
2022-12-19T05:18:11.836Z,3.7
2022-12-19T05:19:12.263Z,4.4
2022-12-19T05:20:12.556Z,4.6
2022-12-19T05:21:13.095Z,3.7
2022-12-19T05:22:13.180Z,4.5
2022-12-19T05:23:17.411Z,5.3
2022-12-19T05:24:15.638Z,5.2
2022-12-19T05:25:15.979Z,6
2022-12-19T05:26:16.173Z,6.4
2022-12-19T05:27:16.349Z,5.3
2022-12-19T05:28:18.331Z,3.4
2022-12-19T05:29:17.632Z,3.9
2022-12-19T05:30:17.386Z,5
2022-12-19T05:31:20.453Z,4.4
2022-12-19T05:32:17.988Z,4.7
2022-12-19T05:33:18.280Z,5.8
2022-12-19T05:34:18.780Z,7.1
2022-12-19T05:35:19.094Z,7
2022-12-19T05:36:19.613Z,4
2022-12-19T05:37:19.724Z,3.5
2022-12-19T05:38:19.938Z,5.9
2022-12-19T05:39:20.304Z,4
2022-12-19T05:40:20.679Z,5
2022-12-19T05:41:21.697Z,4.6
2022-12-19T05:42:21.290Z,3.6
2022-12-19T05:43:22.138Z,5.1
2022-12-19T05:44:22.124Z,4.1
2022-12-19T05:45:22.744Z,4.5
2022-12-19T05:46:24.772Z,4
2022-12-19T05:47:22.964Z,4.4
2022-12-19T05:48:23.396Z,5.4
2022-12-19T05:49:23.694Z,5.6
2022-12-19T05:50:24.011Z,4.8
2022-12-19T05:51:24.176Z,4.4
2022-12-19T05:52:24.643Z,5.4
2022-12-19T05:53:26.173Z,5.2
2022-12-19T05:54:25.264Z,5.8
2022-12-19T05:55:25.699Z,4.7
2022-12-19T05:56:25.800Z,4.8
2022-12-19T05:57:26.201Z,4.6
2022-12-19T05:58:26.523Z,5.3
2022-12-19T05:59:27.032Z,5.1
2022-12-19T06:00:27.454Z,4.9
2022-12-19T06:01:28.209Z,5.3
2022-12-19T06:02:32.316Z,4.7
2022-12-19T06:03:29.900Z,5.1
2022-12-19T06:04:30.547Z,6.4
2022-12-19T06:05:31.072Z,4.9
2022-12-19T06:06:30.875Z,4.2
2022-12-19T06:07:31.194Z,6.1
2022-12-19T06:08:32.110Z,5.5
2022-12-19T06:09:31.715Z,4.8
2022-12-19T06:10:32.333Z,4.5
2022-12-19T06:11:32.444Z,4.6
2022-12-19T06:12:32.862Z,5.4
2022-12-19T06:13:34.195Z,4.2
2022-12-19T06:14:33.586Z,6
2022-12-19T06:15:33.886Z,4.9
2022-12-19T06:16:34.162Z,4.7
2022-12-19T06:17:34.625Z,5.2
2022-12-19T06:18:35.045Z,5.5
2022-12-19T06:19:35.258Z,5.1
2022-12-19T06:20:35.474Z,4.9
2022-12-19T06:21:39.723Z,5.2
2022-12-19T06:22:38.245Z,3.6
2022-12-19T06:23:39.060Z,4.6
2022-12-19T06:24:38.560Z,4.8
2022-12-19T06:25:39.093Z,6.8
2022-12-19T06:26:39.396Z,5.7
2022-12-19T06:27:39.834Z,4.8
2022-12-19T06:28:40.035Z,5.3
2022-12-19T06:29:40.245Z,5.6
2022-12-19T06:30:40.767Z,6.8
2022-12-19T06:31:41.101Z,7.9
2022-12-19T06:32:41.276Z,5.5
2022-12-19T06:33:41.682Z,5.8
2022-12-19T06:35:44.691Z,6
2022-12-19T06:36:44.906Z,7
2022-12-19T06:37:45.213Z,5.9
2022-12-19T06:38:45.530Z,6.6
2022-12-19T06:39:45.930Z,5.8
2022-12-19T06:40:46.152Z,5.5
2022-12-19T06:41:46.575Z,5.5
2022-12-19T06:42:47.912Z,5.5
2022-12-19T06:43:51.872Z,6.4
2022-12-19T06:44:52.639Z,6.5
2022-12-19T06:45:51.127Z,8
2022-12-19T06:46:52.889Z,6.8
2022-12-19T06:47:51.830Z,7.2
2022-12-19T06:48:52.436Z,5.9
2022-12-19T06:49:52.616Z,6.8
2022-12-19T06:50:52.757Z,7.8
2022-12-19T06:51:53.276Z,7.7
2022-12-19T06:52:54.393Z,7.8
2022-12-19T06:53:53.799Z,5.7
2022-12-19T06:54:54.227Z,6.2
2022-12-19T06:55:58.427Z,6
2022-12-19T06:56:55.771Z,7.5
2022-12-19T06:57:55.988Z,8
2022-12-19T06:58:56.399Z,6.7
2022-12-19T06:59:57.949Z,6.7
2022-12-19T07:00:57.136Z,6.3
2022-12-19T07:02:59.566Z,8.1
2022-12-19T07:03:58.885Z,7.8
2022-12-19T07:06:00.275Z,7.1
2022-12-19T07:07:00.955Z,7.3
2022-12-19T07:08:01.163Z,7.6
2022-12-19T07:09:01.261Z,7.2
2022-12-19T07:10:01.601Z,6.3
2022-12-19T07:11:02.122Z,8.4
2022-12-19T07:12:02.648Z,7.1
2022-12-19T07:13:03.158Z,7
2022-12-19T07:14:02.828Z,7.6
2022-12-19T07:15:03.675Z,7.3
2022-12-19T07:16:05.377Z,7.5
2022-12-19T07:17:04.627Z,6.3
2022-12-19T07:18:07.296Z,8.1
2022-12-19T07:19:05.439Z,7.2
2022-12-19T07:20:05.854Z,7
2022-12-19T07:21:06.786Z,8.6
2022-12-19T07:22:06.707Z,7.7
2022-12-19T07:23:07.717Z,8.4
2022-12-19T07:24:07.728Z,8.1
2022-12-19T07:25:07.694Z,6.9
2022-12-19T07:26:07.328Z,9.6
2022-12-19T07:27:07.555Z,7.5
2022-12-19T07:28:08.871Z,8.1
2022-12-19T07:29:09.093Z,7.9
2022-12-19T07:30:09.513Z,8.8
2022-12-19T07:31:08.549Z,8.5
2022-12-19T07:32:09.005Z,8.6
2022-12-19T07:33:11.238Z,8
2022-12-19T07:34:09.624Z,7.6
2022-12-19T07:35:10.267Z,7.3
2022-12-19T07:36:10.256Z,8.6
2022-12-19T07:37:10.995Z,9.2
2022-12-19T07:38:11.022Z,9.3
2022-12-19T07:39:11.713Z,8.3
2022-12-19T07:40:12.455Z,9
2022-12-19T07:41:12.047Z,10.1
2022-12-19T07:42:12.247Z,9.9
2022-12-19T07:43:12.660Z,10.8
2022-12-19T07:44:12.979Z,10.4
2022-12-19T07:45:13.388Z,8.6
2022-12-19T07:46:13.801Z,9.4
2022-12-19T07:47:13.827Z,7.9
2022-12-19T07:48:14.226Z,10.5
2022-12-19T07:49:19.576Z,9.9
2022-12-19T07:50:19.736Z,8.4
2022-12-19T07:51:20.081Z,9.8
2022-12-19T07:52:20.290Z,9.6
2022-12-19T07:53:20.615Z,8.3
2022-12-19T07:54:21.124Z,8.8
2022-12-19T07:55:21.392Z,9.9
2022-12-19T07:56:21.960Z,8.9
2022-12-19T07:57:22.175Z,9.3
2022-12-19T07:58:22.604Z,9.3
2022-12-19T07:59:28.904Z,9.1
2022-12-19T08:00:23.260Z,8
2022-12-19T08:01:23.314Z,9.6
2022-12-19T08:02:26.266Z,10.2
2022-12-19T08:03:25.117Z,9.4
2022-12-19T08:04:24.465Z,8.9
2022-12-19T08:05:24.665Z,8.9
2022-12-19T08:06:25.097Z,9.4
2022-12-19T08:07:25.184Z,10.5
2022-12-19T08:08:25.727Z,9.8
2022-12-19T08:09:26.037Z,10.5
2022-12-19T08:10:26.555Z,10.2
2022-12-19T08:11:26.872Z,11.3
2022-12-19T08:12:27.307Z,10.8
2022-12-19T08:13:29.068Z,9.7
2022-12-19T08:14:29.651Z,9.2
2022-12-19T08:15:29.967Z,9.5
2022-12-19T08:16:31.304Z,10
2022-12-19T08:17:30.623Z,9.9
2022-12-19T08:18:31.011Z,10.2
2022-12-19T08:19:31.227Z,10.4
2022-12-19T08:20:31.536Z,9.2
2022-12-19T08:21:32.154Z,10.1
2022-12-19T08:22:32.587Z,11.3
2022-12-19T08:23:33.193Z,10
2022-12-19T08:24:33.006Z,9.4
2022-12-19T08:25:33.224Z,10.9
2022-12-19T08:26:39.462Z,11.1
2022-12-19T08:27:34.266Z,10.6
2022-12-19T08:28:35.491Z,12
2022-12-19T08:29:34.975Z,10.6
2022-12-19T08:30:35.265Z,10.6
2022-12-19T08:31:35.630Z,10.9
2022-12-19T08:32:35.827Z,11.4
2022-12-19T08:33:37.051Z,11.2
2022-12-19T08:34:36.523Z,8.9
2022-12-19T08:35:36.969Z,8.7
2022-12-19T08:36:37.197Z,9.8
2022-12-19T08:37:37.687Z,10.8
2022-12-19T08:38:38.729Z,10.8
2022-12-19T08:39:39.547Z,10
2022-12-19T08:40:42.843Z,11.3
2022-12-19T08:41:43.248Z,9.8
2022-12-19T08:42:43.564Z,10
2022-12-19T08:43:49.301Z,10.3
2022-12-19T08:44:46.443Z,10.3
2022-12-19T08:45:49.816Z,10.9
2022-12-19T08:46:50.301Z,10.7
2022-12-19T08:47:48.112Z,9.6
2022-12-19T08:48:48.332Z,8.7
2022-12-19T08:49:48.945Z,11.5
2022-12-19T08:50:53.666Z,11.6
2022-12-19T08:51:51.114Z,9.8
2022-12-19T08:52:51.301Z,11.1
2022-12-19T08:53:51.625Z,11.8
2022-12-19T08:54:52.012Z,10.8
2022-12-19T08:56:00.118Z,11.6
2022-12-19T08:56:57.779Z,10.5
2022-12-19T08:57:57.789Z,10
2022-12-19T08:58:57.957Z,10
2022-12-19T08:59:58.525Z,10.1
2022-12-19T09:01:05.837Z,11
2022-12-19T09:02:03.501Z,11
2022-12-19T09:03:04.346Z,13.5
2022-12-19T09:05:36.897Z,12.1
2022-12-19T09:05:58.069Z,11.3
2022-12-19T09:06:18.669Z,10.6
2022-12-19T09:07:11.773Z,10.8
2022-12-19T09:08:13.137Z,12.1
2022-12-19T09:09:13.431Z,10.7
2022-12-19T09:10:14.301Z,11.4
2022-12-19T09:11:16.839Z,9.9
2022-12-19T09:12:15.808Z,10.9
2022-12-19T09:13:14.665Z,11
2022-12-19T09:14:16.369Z,10.7
2022-12-19T09:15:18.432Z,11.9
2022-12-19T09:16:23.605Z,10.2
2022-12-19T09:17:21.107Z,11.1
2022-12-19T09:18:21.379Z,10.4
2022-12-19T09:19:21.687Z,11
2022-12-19T09:20:23.667Z,10.4
2022-12-19T09:21:24.169Z,10.9
2022-12-19T09:22:27.669Z,10.9
2022-12-19T09:23:28.391Z,10.3
2022-12-19T09:24:27.487Z,10.7
2022-12-19T09:25:27.556Z,11.8
2022-12-19T09:26:27.979Z,12.2
2022-12-19T09:27:30.449Z,10.5
2022-12-19T09:28:30.663Z,10.7
2022-12-19T09:29:35.323Z,10.6
2022-12-19T09:30:33.169Z,11.4
2022-12-19T09:31:33.767Z,11.8
2022-12-19T09:32:34.068Z,10.1
2022-12-19T09:33:42.948Z,11
2022-12-19T09:34:37.547Z,10.9
2022-12-19T09:35:36.246Z,11.2
2022-12-19T09:36:36.439Z,10.9
2022-12-19T09:37:36.828Z,11.8
2022-12-19T09:38:37.967Z,11.6
2022-12-19T09:39:37.609Z,10.7
2022-12-19T09:47:03.349Z,12.8
2022-12-19T09:48:02.603Z,11.3
2022-12-19T09:49:02.546Z,11.1
2022-12-19T09:50:02.601Z,12.1
2022-12-19T09:51:12.405Z,12.6
2022-12-19T09:56:21.634Z,11.4
2022-12-19T10:00:41.911Z,11.4
2022-12-19T10:01:43.474Z,12.2
2022-12-19T10:07:13.959Z,12.8
2022-12-19T10:08:07.820Z,11.9
2022-12-19T10:09:49.016Z,11.6
2022-12-19T10:12:31.479Z,12.3
2022-12-19T10:19:20.648Z,11.8
2022-12-19T10:34:53.855Z,11
2022-12-19T10:44:14.312Z,12.7
2022-12-19T10:47:21.048Z,12.8
2022-12-19T10:48:30.783Z,14
2022-12-19T10:49:26.639Z,12.7
2022-12-19T10:50:27.939Z,12.2
2022-12-19T10:51:29.786Z,11.8
2022-12-19T10:53:32.039Z,12.4
2022-12-19T10:56:38.267Z,11.6
2022-12-19T10:57:38.268Z,14.1
2022-12-19T11:01:43.462Z,13.5
2022-12-19T11:02:50.922Z,13.7
2022-12-19T11:04:48.051Z,12.4
2022-12-19T11:10:38.175Z,13.7
2022-12-19T11:15:53.901Z,12.4
2022-12-19T11:19:28.614Z,14.4
2022-12-19T11:23:00.680Z,14
2022-12-19T11:24:16.294Z,13.3
2022-12-19T11:26:20.782Z,14.5
2022-12-19T11:29:40.717Z,16.9
2022-12-19T11:29:41.965Z,15.5
2022-12-19T11:29:42.411Z,13.9
2022-12-19T11:30:36.288Z,16.4
2022-12-19T11:30:36.953Z,14
2022-12-19T11:30:43.368Z,17.7
2022-12-19T11:30:43.936Z,15.1
2022-12-19T11:30:46.253Z,16.2
2022-12-19T11:32:39.026Z,16.5
2022-12-19T11:40:46.585Z,17.8
2022-12-19T11:50:02.923Z,20
2022-12-19T11:51:08.552Z,18.8
2022-12-19T11:56:17.053Z,21.4
2022-12-19T11:57:14.437Z,19.8
2022-12-19T11:58:15.090Z,20.2
2022-12-19T12:00:22.354Z,19.1
2022-12-19T12:06:47.701Z,18.4
2022-12-19T12:08:55.228Z,17.2
2022-12-19T12:44:08.594Z,15.8
2022-12-19T12:46:09.646Z,14.8
2022-12-19T12:50:20.420Z,17.1
2022-12-19T12:51:18.491Z,16.5
2022-12-19T12:52:29.846Z,14.6
2022-12-19T12:53:26.591Z,14.6
2022-12-19T12:54:31.000Z,15.8
2022-12-19T12:55:37.479Z,15.6
2022-12-19T12:56:31.310Z,15.7
2022-12-19T12:57:36.839Z,15.7
2022-12-19T12:59:35.924Z,16.6
2022-12-19T13:00:37.271Z,14.3
2022-12-19T13:01:39.563Z,16.4
2022-12-19T13:02:37.522Z,14.8
2022-12-19T13:03:40.460Z,16.9
2022-12-19T13:08:48.389Z,15.3
2022-12-19T13:09:52.902Z,15.9
2022-12-19T13:12:01.727Z,14.7
2022-12-19T13:13:56.829Z,15.7
2022-12-19T13:15:58.071Z,16.4
2022-12-19T13:16:58.430Z,15.2
2022-12-19T13:21:09.573Z,15.2
2022-12-19T13:24:16.232Z,15.4
2022-12-19T13:31:19.831Z,15.8
2022-12-19T13:31:35.979Z,15.6
2022-12-19T13:34:43.544Z,16.6
2022-12-19T13:39:46.990Z,16.9
2022-12-19T13:39:57.246Z,14.3
2022-12-19T13:41:03.052Z,13.9
2022-12-19T13:44:06.337Z,12.9
2022-12-19T13:47:21.967Z,13.8
2022-12-19T13:48:23.871Z,12
2022-12-19T13:50:34.529Z,13.7
2022-12-19T13:51:26.959Z,13.6
2022-12-19T13:52:27.173Z,13.3
2022-12-19T13:53:29.648Z,14.5
2022-12-19T13:54:37.622Z,12.7
2022-12-19T13:55:30.777Z,12.5
2022-12-19T13:56:31.088Z,12.8
2022-12-19T13:57:32.178Z,12
2022-12-19T13:58:37.047Z,13
2022-12-19T13:59:40.055Z,13.7
2022-12-19T14:00:42.681Z,13.4
2022-12-19T14:01:41.707Z,80.5
2022-12-19T14:02:51.484Z,28.8
2022-12-19T14:03:45.558Z,15.2
2022-12-19T14:04:45.690Z,13
2022-12-19T14:06:16.140Z,14.6
2022-12-19T14:06:47.867Z,12.8
2022-12-19T14:07:49.399Z,15.8
2022-12-19T14:09:58.588Z,14.6
2022-12-19T14:11:31.692Z,11.9
2022-12-19T14:11:40.202Z,16.4
2022-12-19T14:13:39.442Z,13.7
2022-12-19T14:13:59.285Z,15.1
2022-12-19T14:14:10.266Z,13.9
2022-12-19T14:16:15.418Z,12.9
2022-12-19T14:17:17.416Z,14.8
2022-12-19T14:18:43.249Z,12.7
2022-12-19T14:22:10.194Z,13.4
2022-12-19T14:22:26.360Z,12.2
2022-12-19T14:23:42.747Z,12.4
2022-12-19T14:24:26.363Z,11.7
2022-12-19T14:28:19.732Z,12.7
2022-12-19T14:30:38.646Z,12.7
2022-12-19T14:32:58.028Z,12.7
2022-12-19T14:33:44.123Z,15.1
2022-12-19T14:36:05.107Z,14.6
2022-12-19T14:36:08.841Z,11
2022-12-19T14:36:54.188Z,12.9
2022-12-19T14:39:25.721Z,12.7
2022-12-19T14:41:08.513Z,13.2
2022-12-19T14:52:11.487Z,13.2
2022-12-19T14:54:03.003Z,13.1
2022-12-19T14:54:29.541Z,14.3
2022-12-19T14:58:53.528Z,13.6
2022-12-19T14:58:55.187Z,13.8
2022-12-19T15:01:43.010Z,11.4
2022-12-19T15:02:43.318Z,12.1
2022-12-19T15:04:47.232Z,12.2
2022-12-19T15:07:10.391Z,17
2022-12-19T15:08:00.223Z,12.6
2022-12-19T15:10:57.592Z,11.9
2022-12-19T15:11:06.608Z,12
2022-12-19T15:11:16.986Z,15.4
2022-12-19T15:14:54.588Z,11.6
2022-12-19T15:17:25.480Z,11.5
2022-12-19T15:19:27.841Z,12.3
2022-12-19T15:20:28.253Z,12.6
2022-12-19T15:21:30.434Z,13.3
2022-12-19T15:22:28.986Z,11.6
2022-12-19T15:23:29.752Z,12.7
2022-12-19T15:24:29.932Z,12.9
2022-12-19T15:26:02.323Z,13.6
2022-12-19T15:27:33.633Z,11.9
2022-12-19T15:28:42.201Z,13.7
2022-12-19T15:29:34.875Z,12.7
2022-12-19T15:30:37.129Z,12.5
2022-12-19T15:31:43.494Z,12.3
2022-12-19T15:32:36.098Z,13.3
2022-12-19T15:33:38.443Z,14.1
2022-12-19T15:34:50.205Z,14.8
2022-12-19T15:35:43.202Z,12.9
2022-12-19T15:36:43.250Z,12.8
2022-12-19T15:37:44.880Z,13.3
2022-12-19T15:38:44.056Z,13.4
2022-12-19T15:39:45.514Z,12.6
2022-12-19T15:40:44.992Z,11.4
2022-12-19T15:41:48.979Z,11.4
2022-12-19T15:42:53.296Z,12.7
2022-12-19T15:44:03.706Z,13.5
2022-12-19T15:44:54.221Z,12.3
2022-12-19T15:45:58.783Z,13.9
2022-12-19T15:46:56.413Z,12.9
2022-12-19T15:47:56.804Z,12.7
2022-12-19T15:48:57.227Z,12.6
2022-12-19T15:49:57.522Z,11.7
2022-12-19T15:50:57.946Z,13.2
2022-12-19T15:51:58.122Z,13.1
2022-12-19T15:53:00.330Z,13.6
2022-12-19T15:54:15.649Z,13.3
2022-12-19T15:55:01.656Z,14.1
2022-12-19T15:56:02.595Z,12.7
2022-12-19T15:57:02.006Z,12.3
2022-12-19T15:58:06.280Z,13.7
2022-12-19T15:59:05.291Z,13
2022-12-19T16:00:07.971Z,12.9
2022-12-19T16:01:06.405Z,14
2022-12-19T16:03:27.724Z,11.6
2022-12-19T16:04:12.976Z,16.8
2022-12-19T16:05:11.614Z,15.5
2022-12-19T16:06:13.511Z,14.1
2022-12-19T16:08:19.135Z,14.4
2022-12-19T16:10:19.268Z,21
2022-12-19T16:11:22.864Z,20.3
2022-12-19T16:12:24.305Z,16.3
2022-12-19T16:13:25.343Z,16.2
2022-12-19T16:14:24.626Z,13.5
2022-12-19T16:16:29.078Z,12.9
2022-12-19T16:17:32.223Z,13.2
2022-12-19T16:18:29.559Z,12.5
2022-12-19T16:19:31.224Z,13.3
2022-12-19T16:20:36.653Z,15
2022-12-19T16:21:34.596Z,19.1
2022-12-19T16:22:34.472Z,15.3
2022-12-19T16:23:35.047Z,13.4
2022-12-19T16:24:35.350Z,15
2022-12-19T16:25:47.019Z,20.6
2022-12-19T16:26:40.168Z,19.4
2022-12-19T16:27:40.271Z,17
2022-12-19T16:28:40.383Z,11.8
2022-12-19T16:29:41.946Z,14.5
2022-12-19T16:30:41.106Z,13.8
2022-12-19T16:31:41.553Z,13.8
2022-12-19T16:32:41.743Z,11.6
2022-12-19T16:33:42.275Z,14.4
2022-12-19T16:34:42.371Z,14.3
2022-12-19T16:36:10.616Z,20.1
2022-12-19T16:36:45.557Z,18.8
2022-12-19T16:37:45.785Z,23.7
2022-12-19T16:38:46.180Z,18.1
2022-12-19T16:39:46.386Z,14.8
2022-12-19T16:40:48.219Z,17
2022-12-19T16:41:47.234Z,17.1
2022-12-19T16:42:48.767Z,25.8
2022-12-19T16:43:48.257Z,16.9
2022-12-19T16:44:48.399Z,22.7
2022-12-19T16:45:48.481Z,15.3
2022-12-19T16:46:51.375Z,23
2022-12-19T16:47:49.844Z,20.9
2022-12-19T16:48:50.342Z,16.3
2022-12-19T16:49:50.049Z,17
2022-12-19T16:50:50.874Z,17.5
2022-12-19T16:51:51.596Z,26
2022-12-19T16:52:54.775Z,26.6
2022-12-19T16:53:55.396Z,16.5
2022-12-19T16:54:52.840Z,19.2
2022-12-19T16:55:55.840Z,17
2022-12-19T16:56:54.166Z,18.1
2022-12-19T16:57:56.248Z,17.6
2022-12-19T16:58:56.474Z,17.5
2022-12-19T16:59:54.882Z,16.2
2022-12-19T17:00:56.061Z,17.6
2022-12-19T17:01:57.382Z,39.8
2022-12-19T17:02:59.574Z,15.7
2022-12-19T17:03:56.990Z,13.1
2022-12-19T17:04:57.416Z,15.6
2022-12-19T17:05:57.951Z,15.8
2022-12-19T17:06:58.231Z,17.9
2022-12-19T17:07:59.076Z,15.4
2022-12-19T17:08:58.969Z,13.2
2022-12-19T17:09:59.295Z,14.8
2022-12-19T17:10:59.850Z,13.8
2022-12-19T17:12:01.776Z,13.9
2022-12-19T17:13:02.483Z,17.5
2022-12-19T17:15:07.200Z,14.5
2022-12-19T17:16:05.314Z,16.1
2022-12-19T17:17:04.945Z,17.7
2022-12-19T17:20:18.922Z,13.8
2022-12-19T17:21:20.049Z,15
2022-12-19T17:22:16.569Z,14.9
2022-12-19T17:24:16.483Z,14.3
2022-12-19T17:26:19.285Z,14.7
2022-12-19T17:27:18.963Z,16.2
2022-12-19T17:28:19.376Z,15.8
2022-12-19T17:29:19.701Z,15.4
2022-12-19T17:30:20.638Z,13.5
2022-12-19T17:31:28.473Z,16.5
2022-12-19T17:32:24.195Z,15.2
2022-12-19T17:33:24.730Z,15.9
2022-12-19T17:34:28.076Z,15.6
2022-12-19T17:35:29.470Z,15.8
2022-12-19T17:36:36.564Z,14
2022-12-19T17:37:30.210Z,14
2022-12-19T17:38:30.421Z,14.1
2022-12-19T17:39:33.776Z,15.1
2022-12-19T17:40:33.687Z,16.3
2022-12-19T17:41:31.874Z,13.5
2022-12-19T17:42:37.012Z,14.4
2022-12-19T17:43:34.819Z,16
2022-12-19T17:44:35.356Z,13
2022-12-19T17:45:35.696Z,14.9
2022-12-19T17:46:36.924Z,13.7
2022-12-19T17:47:36.505Z,13.8
2022-12-19T17:48:36.815Z,15.1
2022-12-19T17:49:38.774Z,15.7
2022-12-19T17:50:41.442Z,15.8
2022-12-19T17:51:40.150Z,15.6
2022-12-19T17:52:40.316Z,15.1
2022-12-19T17:53:40.740Z,13.9
2022-12-19T17:54:41.262Z,15.6
2022-12-19T17:55:41.985Z,14.3
2022-12-19T17:56:41.886Z,15.1
2022-12-19T17:57:42.156Z,15.8
2022-12-19T17:58:42.718Z,14.5
2022-12-19T17:59:43.093Z,16.9
2022-12-19T18:00:44.740Z,13.6
2022-12-19T18:01:44.568Z,15.4
2022-12-19T18:02:46.149Z,14.3
2022-12-19T18:03:45.082Z,15.5
2022-12-19T18:04:45.010Z,15.6
2022-12-19T18:05:45.317Z,15.5
2022-12-19T18:06:46.268Z,14.8
2022-12-19T18:07:46.465Z,13.6
2022-12-19T18:08:46.275Z,16.1
2022-12-19T18:09:46.816Z,16.2
2022-12-19T18:10:47.091Z,14.6
2022-12-19T18:11:48.696Z,15.8
2022-12-19T18:12:48.211Z,16.9
2022-12-19T18:13:48.394Z,14.5
2022-12-19T18:14:48.558Z,15.1
2022-12-19T18:15:49.182Z,15.1
2022-12-19T18:16:50.602Z,15.9
2022-12-19T18:17:51.603Z,14.6
2022-12-19T18:18:50.108Z,16.6
2022-12-19T18:19:50.439Z,13.7
2022-12-19T18:20:50.764Z,15.4
2022-12-19T18:21:51.181Z,15
2022-12-19T18:22:51.585Z,16.7
2022-12-19T18:23:52.402Z,16.1
2022-12-19T18:24:52.423Z,15.1
2022-12-19T18:25:56.245Z,16.1
2022-12-19T18:26:53.446Z,16
2022-12-19T18:27:54.384Z,14.2
2022-12-19T18:28:54.180Z,17.3
2022-12-19T18:29:54.591Z,17.2
2022-12-19T18:31:00.809Z,16
2022-12-19T18:31:58.714Z,15
2022-12-19T18:33:00.577Z,16.2
2022-12-19T18:34:05.377Z,16.6
2022-12-19T18:34:59.825Z,16.4
2022-12-19T18:36:00.278Z,16.1